首页
METAR-TAF:

METAR-TAF

机场 :

黃刀鎮, 西北特區, 加拿大

纬度: 62-28N, 经度: 114-27W, 海拔: 205米

当前天气观测

该预报发布于39分钟前的06:00 UTC
风速7节,风向东转东北
温度 22°C
湿度 50%
气压 1014 hPa
能見度: 24.1公里
多云层高于12000英尺
多云层高于24000英尺
附近有阵雨

METAR: CYZF 210600Z 06007KT 15SM VCSH BKN120 BKN240 22/11 A2995 RMK AC5CI1 SLP147 DENSITY ALT 1600FT

时间: 00:39 (06:39 UTC)

预报

该预报发布于1小时和1分钟前的05:38 UTC
预报有效从21日的 06点(UTC)到 22日的 06点(UTC)
风速8节,风向东转东北
能見度: 10公里
散云层高于12000英尺
多云层高于24000英尺
从 21日的 1800点(UTC)
风速8节,风向东北
能見度: 10公里
散云层高于8000英尺
多云层高于12000英尺
短暂存在
从 21日的 18点(UTC)到 22日的 03点(UTC)
能見度: 10公里
多云层高于8000英尺
小阵雨
从 22日的 0300点(UTC)
风速8节,风向东转东北
能見度: 10公里
少量云层高于10000英尺
散云层高于22000英尺

TAF: CYZF 210538Z 2106/2206 06008KT P6SM SCT120 BKN240 FM211800 05008KT P6SM SCT080 BKN120 TEMPO 2118/2203 P6SM -SHRA BKN080 FM220300 06008KT P6SM FEW100 SCT220 RMK NXT FCST BY 211200Z

超过4000个机场的气象观测和天气预报(METAR&TAF报告)。

可查询的气象台以黄色和红色小点在地图上表示。

将鼠标移到小点上方,可查看气象台名称。

然后点击查看天气观测和预报。

如需切换地图:点击带黑十字的绿色按钮放大地图;点击带横线的绿色按钮缩小地图;或者点击绿色箭头查看邻近地区的地图。


METAR-TAF: